createdAt,value
2018-05-15T06:17:10.810Z,99.30
2018-05-15T06:19:38.300Z,99.50
2018-05-15T06:22:06.538Z,99.10
2018-05-15T06:24:34.029Z,99.10
2018-05-15T06:27:02.279Z,98.70
2018-05-15T06:29:29.754Z,98.60
2018-05-15T06:31:58.017Z,99.10
2018-05-15T06:34:25.478Z,99.10
2018-05-15T06:36:52.972Z,98.70
2018-05-15T06:39:20.445Z,98.60
2018-05-15T06:41:47.947Z,98.40
2018-05-15T06:44:15.417Z,98.60
2018-05-15T06:46:42.902Z,98.10
2018-05-15T06:49:10.380Z,98.20
2018-05-15T06:51:37.996Z,98.00
2018-05-15T06:54:06.221Z,98.10
2018-05-15T06:56:33.714Z,98.10
2018-05-15T06:59:01.214Z,98.70
2018-05-15T07:01:28.673Z,98.40
2018-05-15T07:03:56.207Z,98.70
2018-05-15T07:06:24.446Z,98.20
2018-05-15T07:08:51.929Z,98.20
2018-05-15T07:11:20.519Z,96.70
2018-05-15T07:13:48.784Z,97.70
2018-05-15T07:16:16.283Z,97.70
2018-05-15T07:18:43.765Z,97.60
2018-05-15T07:21:11.258Z,97.60
2018-05-15T07:23:38.824Z,97.20
2018-05-15T07:26:06.338Z,97.00
2018-05-15T07:28:33.817Z,96.30
2018-05-15T07:31:01.301Z,95.30
2018-05-15T07:33:28.776Z,95.20
2018-05-15T07:35:57.028Z,94.70
2018-05-15T07:38:24.494Z,94.70
2018-05-15T07:40:53.505Z,93.70
2018-05-15T07:43:21.721Z,93.90
2018-05-15T07:45:49.200Z,93.90
2018-05-15T07:48:16.768Z,94.90
2018-05-15T07:50:44.951Z,93.90
2018-05-15T07:53:12.443Z,93.90
2018-05-15T07:55:41.095Z,93.00
2018-05-15T07:58:08.584Z,93.40
2018-05-15T08:00:36.057Z,92.00
2018-05-15T08:03:03.541Z,92.20
2018-05-15T08:05:31.018Z,91.90
2018-05-15T08:07:58.515Z,92.60
2018-05-15T08:10:26.022Z,91.90
2018-05-15T08:15:22.675Z,92.20
2018-05-15T08:17:50.209Z,91.80
2018-05-15T08:20:17.689Z,91.90
2018-05-15T08:22:45.168Z,92.40
2018-05-15T08:25:13.432Z,91.60
2018-05-15T08:27:40.918Z,91.60
2018-05-15T08:30:09.159Z,89.00
2018-05-15T08:32:36.650Z,88.90
2018-05-15T08:35:04.891Z,90.10
2018-05-15T08:37:32.489Z,90.10
2018-05-15T08:40:00.630Z,89.90
2018-05-15T08:42:28.121Z,89.60
2018-05-15T08:44:56.412Z,89.60
2018-05-15T08:47:25.053Z,87.70
2018-05-15T08:49:52.503Z,88.30
2018-05-15T08:52:19.972Z,88.10
2018-05-15T08:54:47.590Z,86.30
2018-05-15T08:57:15.067Z,85.20
2018-05-15T08:59:42.573Z,86.00
2018-05-15T09:02:10.838Z,83.40
2018-05-15T09:04:38.309Z,82.60
2018-05-15T09:07:05.817Z,79.60
2018-05-15T09:09:33.288Z,79.50
2018-05-15T09:12:00.784Z,79.40
2018-05-15T09:14:29.059Z,80.50
2018-05-15T09:16:57.360Z,77.10
2018-05-15T09:19:24.840Z,77.00
2018-05-15T09:21:52.310Z,79.90
2018-05-15T09:24:19.797Z,80.10
2018-05-15T09:26:47.383Z,81.00
2018-05-15T09:29:14.912Z,78.40
2018-05-15T09:31:42.358Z,77.20
2018-05-15T09:39:07.498Z,74.50
2018-05-15T09:41:34.956Z,73.70
2018-05-15T09:44:02.537Z,72.00
2018-05-15T09:46:30.784Z,75.00
2018-05-15T09:48:58.272Z,75.00
2018-05-15T09:51:26.556Z,69.10
2018-05-15T09:53:54.819Z,64.90
2018-05-15T09:56:22.345Z,64.80
2018-05-15T09:58:49.828Z,68.50
2018-05-15T10:01:17.315Z,69.10
2018-05-15T10:03:44.850Z,65.40
2018-05-15T10:06:13.088Z,64.50
2018-05-15T10:08:40.563Z,64.40
2018-05-15T10:11:08.053Z,62.60
2018-05-15T10:13:36.356Z,63.70
2018-05-15T10:16:03.817Z,63.80
2018-05-15T10:18:31.307Z,62.60
2018-05-15T10:20:58.802Z,62.70
2018-05-15T10:23:27.096Z,66.10
2018-05-15T10:25:54.658Z,66.10
2018-05-15T10:28:22.122Z,67.50
2018-05-15T10:30:49.606Z,66.80
2018-05-15T10:33:17.395Z,66.20
2018-05-15T10:35:44.890Z,66.30
2018-05-15T10:38:13.142Z,61.10
2018-05-15T10:40:40.618Z,61.10
2018-05-15T10:43:08.875Z,58.80
2018-05-15T10:45:36.402Z,58.70
2018-05-15T10:48:03.876Z,56.40
2018-05-15T10:50:31.349Z,55.90
2018-05-15T10:52:58.834Z,57.70
2018-05-15T10:55:26.328Z,59.70
2018-05-15T10:57:53.845Z,55.50
2018-05-15T11:00:22.114Z,53.40
2018-05-15T11:02:50.356Z,53.30
2018-05-15T11:05:17.856Z,53.20
2018-05-15T11:07:46.084Z,52.90
2018-05-15T11:10:13.568Z,52.80
2018-05-15T11:27:46.018Z,46.80
2018-05-15T11:30:13.541Z,49.70
2018-05-15T11:32:41.118Z,50.10
2018-05-15T11:35:08.590Z,51.00
2018-05-15T11:37:36.079Z,51.70
2018-05-15T11:40:04.323Z,53.40
2018-05-15T11:42:31.807Z,53.40
2018-05-15T11:44:59.296Z,53.60
2018-05-15T11:47:26.853Z,54.70
2018-05-15T11:49:54.988Z,58.10
2018-05-15T11:52:22.700Z,56.20
2018-05-15T11:54:49.241Z,58.90
2018-05-15T11:57:16.737Z,55.50
2018-05-15T11:59:44.215Z,58.80
2018-05-15T12:02:11.708Z,55.60
2018-05-15T12:04:39.160Z,59.40
2018-05-15T12:07:06.640Z,59.40
2018-05-15T12:09:34.119Z,59.30
2018-05-15T12:12:01.619Z,57.50
2018-05-15T12:14:29.861Z,55.60
2018-05-15T12:16:57.360Z,55.70
2018-05-15T12:19:25.613Z,53.40
2018-05-15T12:21:53.091Z,53.30
2018-05-15T12:24:21.353Z,55.80
2018-05-15T12:26:48.921Z,55.70
2018-05-15T12:29:17.541Z,50.60
2018-05-15T12:31:45.027Z,50.40
2018-05-15T12:34:12.526Z,47.40
2018-05-15T12:36:40.753Z,44.20
2018-05-15T12:39:08.258Z,44.20
2018-05-15T12:41:36.590Z,46.10
2018-05-15T12:44:04.011Z,46.10
2018-05-15T12:46:31.507Z,46.40
2018-05-15T12:48:59.025Z,49.10
2018-05-15T12:51:26.480Z,49.00
2018-05-15T12:53:53.960Z,46.80
2018-05-15T12:56:21.479Z,48.70
2018-05-15T12:58:49.716Z,46.70
2018-05-15T13:01:17.215Z,46.60
2018-05-15T13:03:44.698Z,47.10
2018-05-15T13:06:12.198Z,45.10
2018-05-15T13:08:39.668Z,40.70
2018-05-15T13:11:07.321Z,42.30
2018-05-15T13:13:35.940Z,75.60
2018-05-15T13:16:04.161Z,82.80
2018-05-15T13:18:31.696Z,82.40
2018-05-15T13:20:59.945Z,83.90
2018-05-15T13:23:28.178Z,83.70
2018-05-15T13:25:55.645Z,82.70
2018-05-15T13:28:23.225Z,79.20
2018-05-15T13:30:50.708Z,75.30
2018-05-15T13:33:18.997Z,38.30
2018-05-15T13:35:46.485Z,38.10
2018-05-15T13:38:13.983Z,35.90
2018-05-15T13:40:42.257Z,40.80
2018-05-15T13:43:09.853Z,40.80
2018-05-15T13:45:37.369Z,43.00
2018-05-15T13:48:04.844Z,44.10
2018-05-15T13:50:33.355Z,42.20
2018-05-15T13:53:00.881Z,42.20
2018-05-15T13:55:28.324Z,45.60
2018-05-15T13:57:55.797Z,45.20
2018-05-15T14:00:24.045Z,39.40
2018-05-15T14:02:51.545Z,39.40
2018-05-15T14:05:19.084Z,34.10
2018-05-15T14:07:46.621Z,35.70
2018-05-15T14:10:14.184Z,38.20
2018-05-15T14:12:41.669Z,39.50
2018-05-15T14:15:09.949Z,54.50
2018-05-15T14:17:38.184Z,57.30
2018-05-15T15:39:41.071Z,88.50
2018-05-15T15:42:08.571Z,88.90
2018-05-15T15:44:36.104Z,84.00
2018-05-15T17:04:04.124Z,89.40
2018-05-15T17:09:00.531Z,90.70
2018-05-15T17:11:28.036Z,91.00
2018-05-15T17:13:55.562Z,91.80
2018-05-15T17:16:23.041Z,92.00
2018-05-15T17:18:50.547Z,91.30
2018-05-15T17:21:18.050Z,92.20
2018-05-15T17:23:45.557Z,91.60
2018-05-15T17:26:13.791Z,91.40
2018-05-15T17:28:41.323Z,91.40
2018-05-15T17:31:08.909Z,92.10
2018-05-15T17:33:37.130Z,92.70
2018-05-15T17:36:05.455Z,92.60
2018-05-15T17:53:27.304Z,99.90
2018-05-15T17:55:55.572Z,93.40
2018-05-15T17:58:23.063Z,93.20
2018-05-15T18:00:51.371Z,94.00
2018-05-15T18:03:18.868Z,94.00
2018-05-15T18:05:46.364Z,94.40
2018-05-15T18:08:15.000Z,94.50
2018-05-15T18:10:42.603Z,94.80
2018-05-15T18:13:10.834Z,95.00
2018-05-15T18:15:38.340Z,94.90
2018-05-15T18:18:06.606Z,95.10
2018-05-15T18:20:34.896Z,94.70
2018-05-15T18:23:03.125Z,93.00
2018-05-15T18:25:30.639Z,93.00
2018-05-15T18:27:58.153Z,94.00
2018-05-15T18:30:25.679Z,92.90
2018-05-15T18:32:53.172Z,92.80
2018-05-15T18:35:21.488Z,93.20
2018-05-15T18:37:50.870Z,92.60
2018-05-15T18:40:18.379Z,92.60
2018-05-15T18:42:45.896Z,93.00
2018-05-15T18:45:14.206Z,93.00
2018-05-15T18:47:41.780Z,93.00
2018-05-15T18:50:09.278Z,93.40
2018-05-15T18:52:36.804Z,93.70
2018-05-15T18:55:04.325Z,93.70
2018-05-15T18:57:31.819Z,94.00
2018-05-15T18:59:59.409Z,94.50
2018-05-15T19:02:26.978Z,94.50
2018-05-15T19:04:54.478Z,94.90
2018-05-15T19:07:21.999Z,95.20
2018-05-15T19:27:13.361Z,96.10
2018-05-15T19:29:41.662Z,96.80
2018-05-15T19:32:14.781Z,96.80
2018-05-15T19:34:49.087Z,96.30
2018-05-15T19:37:16.600Z,96.60
2018-05-15T19:39:44.200Z,96.10
2018-05-15T19:42:11.664Z,94.50
2018-05-15T19:44:39.190Z,93.40
2018-05-15T19:47:06.693Z,92.80
2018-05-15T19:49:34.224Z,91.70
2018-05-15T19:52:01.745Z,91.30
2018-05-15T19:54:30.044Z,90.40
2018-05-15T19:56:57.585Z,90.40
2018-05-15T19:59:25.127Z,90.30
2018-05-15T20:01:53.415Z,90.50
2018-05-15T20:04:20.947Z,90.50
2018-05-15T20:06:48.437Z,90.80
2018-05-15T20:09:15.981Z,90.90
2018-05-15T20:11:44.281Z,90.80
2018-05-15T20:14:11.747Z,90.80
2018-05-15T20:16:39.328Z,90.60
2018-05-15T20:19:07.640Z,90.80
2018-05-15T20:21:35.141Z,91.30
2018-05-15T20:24:02.606Z,91.20
2018-05-15T20:26:30.156Z,91.50
2018-05-15T20:28:57.657Z,92.10
2018-05-15T20:31:25.109Z,92.20
2018-05-15T20:33:53.389Z,92.80
2018-05-15T20:36:20.929Z,92.40
2018-05-15T20:38:48.440Z,92.50
2018-05-15T20:41:16.685Z,92.80
2018-05-15T20:43:44.149Z,92.80
2018-05-15T20:46:13.827Z,92.30
2018-05-15T20:48:41.331Z,92.30
2018-05-15T20:51:08.864Z,92.30
2018-05-15T20:53:36.379Z,92.20
2018-05-15T20:56:03.913Z,92.50
2018-05-15T20:58:32.185Z,93.20
2018-05-15T21:00:59.711Z,93.20
2018-05-15T21:03:27.238Z,92.80
2018-05-15T21:05:54.712Z,93.00
2018-05-15T21:08:22.211Z,93.40
2018-05-15T21:10:49.807Z,93.60
2018-05-15T21:13:17.300Z,93.20
2018-05-15T21:15:44.799Z,93.40
2018-05-15T21:18:13.061Z,93.10
2018-05-15T21:20:40.546Z,93.10
2018-05-15T21:23:08.814Z,93.20
2018-05-15T21:25:37.058Z,93.10
2018-05-15T21:28:04.599Z,93.10
2018-05-15T21:30:32.082Z,93.30
2018-05-15T21:32:59.568Z,93.60
2018-05-15T21:35:27.796Z,93.70
2018-05-15T21:37:55.390Z,93.70
2018-05-15T21:40:22.920Z,93.50
2018-05-15T21:42:50.487Z,93.20
2018-05-15T21:45:17.995Z,93.40
2018-05-15T21:47:45.457Z,93.10
2018-05-15T21:50:13.016Z,93.40
2018-05-15T21:52:40.496Z,93.30
2018-05-15T21:55:07.987Z,92.50
2018-05-15T21:57:35.458Z,93.00
2018-05-15T22:00:03.749Z,94.10
2018-05-15T22:02:31.977Z,95.20
2018-05-15T22:04:59.489Z,95.20
2018-05-15T22:07:26.997Z,95.60
2018-05-15T22:09:54.493Z,95.90
2018-05-15T22:12:34.653Z,96.30
2018-05-15T22:15:14.057Z,96.20
2018-05-15T22:17:53.431Z,96.60
2018-05-15T22:20:33.009Z,95.90
2018-05-15T22:23:00.677Z,96.10
2018-05-15T22:25:28.164Z,96.20
2018-05-15T22:27:56.407Z,96.10
2018-05-15T22:30:23.908Z,96.10
2018-05-15T22:32:51.394Z,96.70
2018-05-15T22:35:19.662Z,96.00
2018-05-15T22:37:47.969Z,96.40
2018-05-15T22:40:15.480Z,96.10
2018-05-15T22:42:42.985Z,95.90
2018-05-15T22:45:10.444Z,96.80
2018-05-15T22:47:37.936Z,96.30
2018-05-15T22:50:05.412Z,96.30
2018-05-15T22:52:33.668Z,95.70
2018-05-15T22:55:01.147Z,96.00
2018-05-15T22:57:29.454Z,96.60
2018-05-15T22:59:56.915Z,96.30
2018-05-15T23:02:24.403Z,96.50
2018-05-15T23:04:51.900Z,96.90
2018-05-15T23:07:19.400Z,96.60
2018-05-15T23:09:46.889Z,96.40
2018-05-15T23:12:14.348Z,96.40
2018-05-15T23:14:41.852Z,96.40
2018-05-15T23:17:09.340Z,96.20
2018-05-15T23:19:36.836Z,95.70
2018-05-15T23:22:04.304Z,95.60
2018-05-15T23:24:32.554Z,96.00
2018-05-15T23:27:00.113Z,96.00
2018-05-15T23:29:27.676Z,95.90
2018-05-15T23:31:55.084Z,95.70
2018-05-15T23:34:22.578Z,96.00
2018-05-15T23:36:50.073Z,95.70
2018-05-15T23:39:18.354Z,95.30
2018-05-15T23:41:46.581Z,95.30
2018-05-15T23:44:14.118Z,95.20
2018-05-15T23:46:41.572Z,95.40
2018-05-15T23:49:09.271Z,95.50
2018-05-15T23:51:36.753Z,95.90
2018-05-15T23:54:05.008Z,96.40
2018-05-15T23:56:32.474Z,96.40
2018-05-15T23:58:59.980Z,96.20
